Time;durP1;ratioP1;P1;durP2;ratioP2;P2;SDS_P1;SDS_P2;PMS_P1;PMS_P2;Temp;Humidity;BMP_temperature;BMP_pressure;BME280_temperature;BME280_humidity;BME280_pressure;Samples;Min_cycle;Max_cycle;Signal;HPM_P1;HPM_P2
2023/10/15 00:00:19;;;;;;;0.65;0.65;;;7.20;99.90;;;;;;5011427;28;20229;-76
2023/10/15 00:02:47;;;;;;;0.70;0.70;;;7.20;99.90;;;;;;5028742;28;20201;-76
2023/10/15 00:05:18;;;;;;;0.70;0.70;;;7.40;99.90;;;;;;5028957;28;20208;-76
2023/10/15 00:07:45;;;;;;;0.60;0.60;;;7.40;99.90;;;;;;5028857;28;20221;-76
2023/10/15 00:10:12;;;;;;;0.68;0.68;;;7.30;99.90;;;;;;5029230;28;20297;-76
2023/10/15 00:12:43;;;;;;;0.60;0.60;;;7.40;99.90;;;;;;5009781;28;20253;-76
2023/10/15 00:15:23;;;;;;;0.60;0.60;;;7.30;99.90;;;;;;5028751;28;20292;-76
2023/10/15 00:17:53;;;;;;;0.70;0.70;;;7.30;99.90;;;;;;5028857;28;20182;-76
2023/10/15 00:20:22;;;;;;;0.70;0.70;;;7.20;99.90;;;;;;5028484;28;20682;-76
2023/10/15 00:22:51;;;;;;;0.60;0.60;;;7.20;99.90;;;;;;5011020;28;20205;-76
2023/10/15 00:25:20;;;;;;;0.60;0.60;;;7.20;99.90;;;;;;5029140;28;20542;-76
2023/10/15 00:27:57;;;;;;;0.70;0.70;;;7.20;99.90;;;;;;5028650;28;20222;-76
2023/10/15 00:30:32;;;;;;;0.70;0.70;;;7.10;99.90;;;;;;5010745;28;20205;-76
2023/10/15 00:32:59;;;;;;;0.70;0.70;;;7.10;99.90;;;;;;5011116;28;20201;-76
2023/10/15 00:35:27;;;;;;;11.20;3.40;;;7.00;99.90;;;;;;5029144;28;20205;-77
2023/10/15 00:37:56;;;;;;;1.40;1.30;;;7.00;99.90;;;;;;5028931;28;20206;-76
2023/10/15 00:40:26;;;;;;;0.80;0.80;;;7.10;99.90;;;;;;5028350;28;20217;-77
2023/10/15 00:42:52;;;;;;;0.60;0.60;;;7.10;99.90;;;;;;5029267;28;20658;-76
2023/10/15 00:45:21;;;;;;;0.70;0.70;;;7.10;99.90;;;;;;5011058;28;20296;-76
2023/10/15 00:47:52;;;;;;;0.70;0.70;;;7.10;99.90;;;;;;5028575;28;20351;-76
2023/10/15 00:50:19;;;;;;;0.70;0.70;;;7.10;99.90;;;;;;5010232;28;20221;-76
2023/10/15 00:52:48;;;;;;;0.68;0.68;;;7.10;99.90;;;;;;5028514;28;20200;-76
2023/10/15 00:55:19;;;;;;;0.70;0.70;;;7.10;99.90;;;;;;5006773;28;20329;-75
2023/10/15 00:57:55;;;;;;;0.70;0.70;;;7.10;99.90;;;;;;5009105;28;20199;-75
2023/10/15 01:03:09;;;;;;;0.80;0.80;;;7.20;99.90;;;;;;5008867;28;20213;-75
2023/10/15 01:05:44;;;;;;;0.80;0.80;;;7.20;99.90;;;;;;5006844;28;20257;-75
2023/10/15 01:08:10;;;;;;;0.60;0.60;;;7.30;99.90;;;;;;5008522;28;20218;-76
2023/10/15 01:10:39;;;;;;;0.70;0.70;;;7.20;99.90;;;;;;5008637;28;20233;-75
2023/10/15 01:13:21;;;;;;;0.75;0.75;;;7.20;99.90;;;;;;5008514;28;20205;-75
2023/10/15 01:15:51;;;;;;;0.80;0.80;;;7.20;99.90;;;;;;5007828;28;20211;-76
2023/10/15 01:18:17;;;;;;;0.60;0.60;;;7.20;99.90;;;;;;5012314;28;20689;-76
2023/10/15 01:20:46;;;;;;;0.63;0.63;;;7.20;99.90;;;;;;5012106;28;20203;-75
2023/10/15 01:26:00;;;;;;;0.70;0.70;;;7.20;99.90;;;;;;5012216;28;20202;-76
2023/10/15 01:28:39;;;;;;;0.65;0.65;;;7.20;99.90;;;;;;5012095;28;20219;-75
2023/10/15 01:31:05;;;;;;;0.70;0.70;;;7.30;99.90;;;;;;5010629;28;20624;-76
2023/10/15 01:33:36;;;;;;;0.70;0.70;;;7.30;99.90;;;;;;5011988;28;20218;-76
2023/10/15 01:36:06;;;;;;;0.70;0.70;;;7.30;99.90;;;;;;5010344;28;20329;-76
2023/10/15 01:38:34;;;;;;;0.70;0.70;;;7.30;99.90;;;;;;5011771;28;20206;-76
2023/10/15 01:41:03;;;;;;;0.60;0.60;;;7.40;99.90;;;;;;5011771;28;20289;-75
2023/10/15 01:43:33;;;;;;;0.50;0.50;;;7.40;99.90;;;;;;5011791;28;20651;-76
2023/10/15 01:46:06;;;;;;;0.70;0.70;;;7.50;99.90;;;;;;5011851;28;20273;-76
2023/10/15 01:48:32;;;;;;;0.77;0.77;;;7.40;99.90;;;;;;5011641;28;20190;-76
2023/10/15 01:51:06;;;;;;;0.60;0.60;;;7.30;99.90;;;;;;5011386;28;20412;-75
2023/10/15 01:53:37;;;;;;;0.80;0.80;;;7.40;99.90;;;;;;5006689;28;20546;-75
2023/10/15 01:56:07;;;;;;;0.63;0.63;;;7.60;99.90;;;;;;5009922;28;20231;-76
2023/10/15 01:58:39;;;;;;;0.70;0.70;;;7.70;99.90;;;;;;5011074;28;20201;-76
2023/10/15 02:01:31;;;;;;;0.70;0.70;;;7.60;99.90;;;;;;4993759;28;20752;-76
2023/10/15 02:04:00;;;;;;;0.70;0.70;;;7.70;99.90;;;;;;5011818;28;20729;-76
2023/10/15 02:06:31;;;;;;;0.60;0.60;;;7.80;99.90;;;;;;5020277;28;20199;-76
2023/10/15 02:08:56;;;;;;;0.57;0.57;;;8.00;99.90;;;;;;5031523;28;20236;-77
2023/10/15 02:11:22;;;;;;;0.63;0.63;;;8.10;99.90;;;;;;5030858;28;20194;-74
2023/10/15 02:13:49;;;;;;;0.70;0.70;;;8.20;99.90;;;;;;5030643;28;20219;-75
2023/10/15 02:16:25;;;;;;;0.70;0.70;;;8.30;99.90;;;;;;5030506;28;20915;-75
2023/10/15 02:18:51;;;;;;;0.70;0.70;;;8.20;99.90;;;;;;5030876;28;20190;-74
2023/10/15 02:21:17;;;;;;;0.70;0.70;;;8.20;99.90;;;;;;5030594;28;20391;-75
2023/10/15 02:23:50;;;;;;;0.70;0.70;;;8.20;99.90;;;;;;5030428;28;20190;-74
2023/10/15 02:26:30;;;;;;;0.70;0.70;;;8.10;99.90;;;;;;5030269;28;20220;-74
2023/10/15 02:29:05;;;;;;;0.60;0.60;;;8.20;99.90;;;;;;5012786;28;20689;-74
2023/10/15 02:31:31;;;;;;;0.60;0.60;;;8.20;99.90;;;;;;5030172;28;20190;-75
2023/10/15 02:33:57;;;;;;;0.70;0.70;;;8.30;99.90;;;;;;5030687;28;20213;-75
2023/10/15 02:36:26;;;;;;;0.60;0.60;;;8.20;99.90;;;;;;5030140;28;20205;-75
2023/10/15 02:38:55;;;;;;;0.70;0.70;;;8.20;99.90;;;;;;5030320;28;20198;-76
2023/10/15 02:41:30;;;;;;;0.70;0.70;;;8.30;99.90;;;;;;5012465;28;20217;-75
2023/10/15 02:43:57;;;;;;;0.70;0.70;;;8.30;99.90;;;;;;5030090;28;20189;-74
2023/10/15 02:48:57;;;;;;;0.60;0.60;;;8.30;99.90;;;;;;5010984;28;20202;-75
2023/10/15 02:51:26;;;;;;;0.70;0.70;;;8.30;99.90;;;;;;4991903;28;20360;-74
2023/10/15 02:54:03;;;;;;;0.60;0.60;;;8.30;99.90;;;;;;5017655;28;20304;-75
2023/10/15 02:56:31;;;;;;;0.70;0.70;;;8.30;99.90;;;;;;4989928;28;20603;-75
2023/10/15 02:58:57;;;;;;;0.60;0.60;;;8.30;99.90;;;;;;4989776;28;20564;-75
2023/10/15 03:01:26;;;;;;;0.70;0.70;;;8.30;99.90;;;;;;4989465;28;20219;-75
2023/10/15 03:03:56;;;;;;;0.65;0.65;;;8.30;99.90;;;;;;4990353;28;20520;-75
2023/10/15 03:06:31;;;;;;;0.65;0.65;;;8.30;99.90;;;;;;4989121;28;20203;-74
2023/10/15 03:08:58;;;;;;;0.88;0.88;;;8.30;99.90;;;;;;4990478;28;20655;-75
2023/10/15 03:11:32;;;;;;;0.60;0.60;;;8.30;99.90;;;;;;4990351;28;20204;-75
2023/10/15 03:14:00;;;;;;;0.60;0.60;;;8.20;99.90;;;;;;4990890;28;20196;-75
2023/10/15 03:16:33;;;;;;;0.70;0.70;;;8.20;99.90;;;;;;4990263;28;20616;-76
2023/10/15 03:19:09;;;;;;;0.70;0.70;;;8.20;99.90;;;;;;4989108;28;20211;-75
2023/10/15 03:21:39;;;;;;;0.60;0.60;;;8.20;99.90;;;;;;4989224;28;20678;-73
2023/10/15 03:24:05;;;;;;;0.68;0.68;;;8.20;99.90;;;;;;4989269;28;20234;-73
2023/10/15 03:26:33;;;;;;;0.70;0.70;;;8.10;99.90;;;;;;4990321;28;20758;-73
2023/10/15 03:28:59;;;;;;;1.05;1.05;;;8.20;99.90;;;;;;4990273;28;20234;-74
2023/10/15 03:31:30;;;;;;;0.50;0.50;;;8.20;99.90;;;;;;4990294;28;20199;-75
2023/10/15 03:36:50;;;;;;;0.70;0.70;;;8.20;99.90;;;;;;4990004;28;20682;-75
2023/10/15 03:40:10;;;;;;;0.63;0.63;;;8.20;99.90;;;;;;4989445;28;20196;-75
2023/10/15 03:42:39;;;;;;;0.60;0.60;;;8.20;99.90;;;;;;4985934;28;20261;-75
2023/10/15 03:45:01;;;;;;;0.60;0.60;;;8.00;99.90;;;;;;4987318;28;20219;-76
2023/10/15 03:47:27;;;;;;;0.70;0.70;;;8.00;99.90;;;;;;4989929;28;20659;-76
2023/10/15 03:50:06;;;;;;;6.13;2.55;;;8.00;99.90;;;;;;5005087;28;20294;-75
2023/10/15 03:52:34;;;;;;;0.65;0.65;;;7.90;99.90;;;;;;4989557;28;20269;-76
2023/10/15 03:54:59;;;;;;;0.70;0.70;;;7.90;99.90;;;;;;4991341;28;20785;-75
2023/10/15 03:57:27;;;;;;;0.50;0.50;;;7.80;99.90;;;;;;5009689;28;20269;-75
2023/10/15 03:59:56;;;;;;;0.60;0.60;;;7.70;99.90;;;;;;4992073;28;20226;-76
2023/10/15 04:03:08;;;;;;;0.70;0.70;;;7.70;99.90;;;;;;4993893;28;20203;-76
2023/10/15 04:05:14;;;;;;;0.60;0.60;;;7.60;99.90;;;;;;5007362;28;20264;-76
2023/10/15 04:07:49;;;;;;;0.68;0.68;;;7.50;99.90;;;;;;5029267;28;20201;-76
2023/10/15 04:10:22;;;;;;;0.60;0.60;;;7.30;99.90;;;;;;5030318;28;20276;-77
2023/10/15 04:12:50;;;;;;;0.70;0.70;;;7.40;99.90;;;;;;5011353;28;20221;-76
2023/10/15 04:15:17;;;;;;;0.60;0.60;;;7.40;99.90;;;;;;5029220;28;20206;-76
2023/10/15 04:17:45;;;;;;;0.63;0.63;;;7.30;99.90;;;;;;5011032;28;20281;-75
2023/10/15 04:20:13;;;;;;;0.60;0.60;;;7.30;99.90;;;;;;5010949;28;20220;-77
2023/10/15 04:22:46;;;;;;;0.68;0.68;;;7.40;99.90;;;;;;5028743;28;20209;-76
2023/10/15 04:25:23;;;;;;;0.60;0.60;;;7.30;99.90;;;;;;5011366;28;20639;-76
2023/10/15 04:27:55;;;;;;;0.70;0.70;;;7.20;99.90;;;;;;5028688;28;20624;-76
2023/10/15 04:30:21;;;;;;;0.65;0.65;;;7.20;99.90;;;;;;5028915;28;20708;-76
2023/10/15 04:32:50;;;;;;;0.70;0.70;;;7.20;99.90;;;;;;5028620;28;20228;-76
2023/10/15 04:35:25;;;;;;;0.60;0.60;;;7.20;99.90;;;;;;5028479;28;20244;-76
2023/10/15 04:37:57;;;;;;;0.60;0.60;;;7.10;99.90;;;;;;5011145;28;20193;-75
2023/10/15 04:40:23;;;;;;;0.60;0.60;;;7.10;99.90;;;;;;5006692;28;20238;-76
2023/10/15 04:42:52;;;;;;;0.60;0.60;;;7.00;99.90;;;;;;4991284;28;20210;-76
2023/10/15 04:48:01;;;;;;;0.70;0.70;;;7.20;99.90;;;;;;5009310;28;20195;-76
2023/10/15 04:50:29;;;;;;;0.70;0.70;;;7.40;99.90;;;;;;5009912;28;20605;-76
2023/10/15 04:53:12;;;;;;;0.70;0.70;;;7.40;99.90;;;;;;4995484;28;20198;-76
2023/10/15 04:55:46;;;;;;;0.50;0.50;;;7.60;99.90;;;;;;5012947;28;20705;-76
2023/10/15 04:58:12;;;;;;;0.50;0.50;;;7.70;99.90;;;;;;5011551;28;20591;-76
2023/10/15 05:00:47;;;;;;;0.60;0.60;;;7.70;99.90;;;;;;5013720;28;20218;-76
2023/10/15 05:03:14;;;;;;;0.70;0.70;;;7.80;99.90;;;;;;5033146;28;20216;-77
2023/10/15 05:05:43;;;;;;;0.70;0.70;;;7.80;99.90;;;;;;5032818;28;20206;-76
2023/10/15 05:08:12;;;;;;;0.68;0.68;;;7.50;99.90;;;;;;5014040;28;20226;-75
2023/10/15 05:10:50;;;;;;;0.60;0.60;;;7.40;99.90;;;;;;5032590;28;20622;-75
2023/10/15 05:13:19;;;;;;;0.70;0.70;;;7.40;99.90;;;;;;5033147;28;20222;-76
2023/10/15 05:15:48;;;;;;;0.70;0.70;;;7.40;99.90;;;;;;5015171;28;20206;-76
2023/10/15 05:18:20;;;;;;;0.60;0.60;;;7.30;99.90;;;;;;5032518;28;20633;-76
2023/10/15 05:20:47;;;;;;;0.60;0.60;;;7.50;99.90;;;;;;5032803;28;20206;-76
2023/10/15 05:23:13;;;;;;;0.60;0.60;;;7.60;99.90;;;;;;5014698;28;20209;-77
2023/10/15 05:25:39;;;;;;;0.60;0.60;;;7.60;99.90;;;;;;5032110;28;20647;-76
2023/10/15 05:28:09;;;;;;;0.60;0.60;;;7.60;99.90;;;;;;5031951;28;20196;-76
2023/10/15 05:30:34;;;;;;;0.60;0.60;;;7.70;99.90;;;;;;5031678;28;20720;-75
2023/10/15 05:33:01;;;;;;;0.70;0.70;;;7.60;99.90;;;;;;5031069;28;20284;-76
2023/10/15 05:35:29;;;;;;;0.70;0.70;;;7.60;99.90;;;;;;5029977;28;20665;-77
2023/10/15 05:37:56;;;;;;;0.70;0.70;;;7.50;99.90;;;;;;5013715;28;20297;-76
2023/10/15 05:40:21;;;;;;;0.60;0.60;;;7.40;99.90;;;;;;5031636;28;20228;-74
2023/10/15 05:42:51;;;;;;;0.60;0.60;;;7.30;99.90;;;;;;5031685;28;20666;-74
2023/10/15 05:45:18;;;;;;;0.80;0.80;;;7.20;99.90;;;;;;5031700;28;20190;-74
2023/10/15 05:47:43;;;;;;;0.70;0.70;;;7.20;99.90;;;;;;5030454;28;20202;-75
2023/10/15 05:50:10;;;;;;;0.60;0.60;;;7.00;99.90;;;;;;5013323;28;20198;-73
2023/10/15 05:52:36;;;;;;;0.60;0.60;;;6.90;99.90;;;;;;5031409;28;20225;-73
2023/10/15 05:55:02;;;;;;;0.70;0.70;;;6.80;99.90;;;;;;5013885;28;20736;-73
2023/10/15 05:57:31;;;;;;;0.70;0.70;;;6.80;99.90;;;;;;4998850;28;20205;-72
2023/10/15 05:59:57;;;;;;;0.60;0.60;;;6.80;99.90;;;;;;5031311;28;20214;-74
2023/10/15 06:02:26;;;;;;;0.60;0.60;;;6.80;99.90;;;;;;5013097;28;20257;-72
2023/10/15 06:04:51;;;;;;;0.70;0.70;;;6.70;99.90;;;;;;5030960;28;20240;-72
2023/10/15 06:07:17;;;;;;;0.52;0.52;;;6.60;99.90;;;;;;5030621;28;20198;-73
2023/10/15 06:09:45;;;;;;;0.60;0.60;;;6.70;99.90;;;;;;5013126;28;20201;-74
2023/10/15 06:12:13;;;;;;;1.08;1.00;;;6.90;99.90;;;;;;5031373;28;20206;-74
2023/10/15 06:14:41;;;;;;;0.60;0.60;;;7.00;99.90;;;;;;5030412;28;20190;-73
2023/10/15 06:17:07;;;;;;;0.60;0.60;;;7.10;99.90;;;;;;5012100;28;20241;-74
2023/10/15 06:19:34;;;;;;;0.68;0.68;;;7.00;99.90;;;;;;5029842;28;20249;-73
2023/10/15 06:22:00;;;;;;;0.65;0.65;;;7.00;99.90;;;;;;5029612;28;20194;-72
2023/10/15 06:24:25;;;;;;;0.52;0.52;;;7.00;99.90;;;;;;5030551;28;20191;-74
2023/10/15 06:26:52;;;;;;;0.68;0.68;;;7.00;99.90;;;;;;5013139;28;20636;-72
2023/10/15 06:29:18;;;;;;;0.60;0.60;;;7.10;99.90;;;;;;5030816;28;20550;-72
2023/10/15 06:31:44;;;;;;;0.75;0.75;;;7.20;99.90;;;;;;5013040;28;20309;-72
2023/10/15 06:34:09;;;;;;;0.60;0.60;;;7.40;99.90;;;;;;5030728;28;20292;-73
2023/10/15 06:36:35;;;;;;;0.70;0.70;;;7.40;99.90;;;;;;5030454;28;20198;-73
2023/10/15 06:39:01;;;;;;;0.60;0.60;;;7.30;99.90;;;;;;5030516;28;20244;-71
2023/10/15 06:41:27;;;;;;;4.22;2.20;;;7.30;99.90;;;;;;5030704;28;20210;-72
2023/10/15 06:43:57;;;;;;;0.85;0.85;;;7.30;99.90;;;;;;5012532;28;20684;-72
2023/10/15 06:46:23;;;;;;;0.70;0.70;;;7.20;99.90;;;;;;5012080;28;20588;-70
2023/10/15 06:48:49;;;;;;;0.68;0.68;;;7.30;99.90;;;;;;5030332;28;20233;-74
2023/10/15 06:51:17;;;;;;;0.70;0.70;;;7.40;99.90;;;;;;5029287;28;20674;-75
2023/10/15 06:53:43;;;;;;;0.70;0.70;;;7.40;99.90;;;;;;5028392;28;20201;-75
2023/10/15 06:56:09;;;;;;;0.60;0.60;;;7.50;99.90;;;;;;5011278;28;20237;-75
2023/10/15 06:58:35;;;;;;;0.50;0.50;;;7.50;99.90;;;;;;5029057;28;20198;-75
2023/10/15 07:01:07;;;;;;;0.63;0.63;;;7.60;99.90;;;;;;5011273;28;20222;-75
2023/10/15 07:03:33;;;;;;;0.60;0.60;;;7.60;99.90;;;;;;5029003;28;20205;-75
2023/10/15 07:05:59;;;;;;;0.60;0.60;;;7.70;99.90;;;;;;5029386;28;20206;-76
2023/10/15 07:08:31;;;;;;;0.60;0.60;;;7.70;99.90;;;;;;5029339;28;20277;-76
2023/10/15 07:10:59;;;;;;;0.70;0.70;;;7.70;99.90;;;;;;5029298;28;20201;-77
2023/10/15 07:13:25;;;;;;;0.60;0.60;;;7.70;99.90;;;;;;5028500;28;20198;-76
2023/10/15 07:15:50;;;;;;;0.50;0.50;;;7.80;99.90;;;;;;5011367;28;20220;-77
2023/10/15 07:18:16;;;;;;;0.60;0.60;;;7.80;99.90;;;;;;5029166;28;20248;-77
2023/10/15 07:20:42;;;;;;;0.50;0.50;;;8.00;99.90;;;;;;5029269;28;20214;-77
2023/10/15 07:23:07;;;;;;;0.60;0.60;;;8.20;99.90;;;;;;5011211;28;20201;-77
2023/10/15 07:25:33;;;;;;;0.80;0.80;;;8.30;99.90;;;;;;5029034;28;20213;-75
2023/10/15 07:28:02;;;;;;;0.60;0.60;;;8.40;99.90;;;;;;5031156;28;20612;-79
2023/10/15 07:30:32;;;;;;;0.65;0.65;;;8.50;99.90;;;;;;5033992;28;20205;-77
2023/10/15 07:32:57;;;;;;;0.60;0.60;;;8.60;99.90;;;;;;5031375;28;20198;-79
2023/10/15 07:35:25;;;;;;;0.63;0.63;;;8.60;99.90;;;;;;5029580;28;20205;-76
2023/10/15 07:37:52;;;;;;;0.60;0.60;;;8.70;99.90;;;;;;5029311;28;20653;-77
2023/10/15 07:40:21;;;;;;;0.70;0.70;;;8.80;99.90;;;;;;5029502;28;20665;-78
2023/10/15 07:42:59;;;;;;;0.60;0.60;;;8.90;99.90;;;;;;5029324;28;20268;-78
2023/10/15 07:45:29;;;;;;;0.60;0.60;;;9.00;99.90;;;;;;5028975;28;20236;-77
2023/10/15 07:48:00;;;;;;;0.60;0.60;;;9.00;99.90;;;;;;5029939;28;20194;-79
2023/10/15 07:50:27;;;;;;;0.60;0.60;;;9.10;99.90;;;;;;5029433;28;20727;-78
2023/10/15 07:52:54;;;;;;;0.70;0.70;;;9.20;99.90;;;;;;5029442;28;20243;-79
2023/10/15 07:55:24;;;;;;;0.70;0.70;;;9.20;99.90;;;;;;5028591;28;20713;-78
2023/10/15 07:57:51;;;;;;;0.70;0.70;;;9.30;99.90;;;;;;5011507;28;20198;-79
2023/10/15 08:00:22;;;;;;;0.63;0.63;;;9.40;99.90;;;;;;5029218;28;20210;-79
2023/10/15 08:02:52;;;;;;;0.60;0.60;;;9.50;99.90;;;;;;5011117;28;21124;-78
2023/10/15 08:05:31;;;;;;;0.70;0.70;;;9.70;99.90;;;;;;5029037;28;20201;-78
2023/10/15 08:07:57;;;;;;;0.60;0.60;;;9.80;99.90;;;;;;5029016;28;20194;-80
2023/10/15 08:10:24;;;;;;;0.60;0.60;;;9.90;99.90;;;;;;5028784;28;20311;-73
2023/10/15 08:12:51;;;;;;;0.80;0.80;;;10.10;99.90;;;;;;5028744;28;20190;-73
2023/10/15 08:15:17;;;;;;;0.60;0.60;;;10.30;99.90;;;;;;5010688;28;20573;-75
2023/10/15 08:17:46;;;;;;;0.60;0.60;;;10.40;99.90;;;;;;5028838;28;20580;-73
2023/10/15 08:20:12;;;;;;;0.60;0.60;;;10.60;99.90;;;;;;5028801;28;20298;-73
2023/10/15 08:22:45;;;;;;;0.60;0.60;;;10.80;99.90;;;;;;5028773;28;20634;-74
2023/10/15 08:25:14;;;;;;;0.60;0.60;;;10.50;99.90;;;;;;5028721;28;20197;-75
2023/10/15 08:27:46;;;;;;;0.60;0.60;;;10.30;99.90;;;;;;5010676;28;20233;-77
2023/10/15 08:30:12;;;;;;;0.50;0.50;;;10.10;99.90;;;;;;5010674;28;20202;-73
2023/10/15 08:32:44;;;;;;;0.60;0.60;;;10.20;99.90;;;;;;5028623;28;20202;-73
2023/10/15 08:35:16;;;;;;;0.60;0.60;;;10.20;99.90;;;;;;5028560;28;20648;-74
2023/10/15 08:37:43;;;;;;;0.60;0.60;;;10.10;99.90;;;;;;5028772;28;20205;-76
2023/10/15 08:40:15;;;;;;;0.50;0.50;;;10.20;99.90;;;;;;5028488;28;20198;-73
2023/10/15 08:42:59;;;;;;;0.60;0.60;;;10.40;99.90;;;;;;5010439;28;20202;-76
2023/10/15 08:45:26;;;;;;;0.60;0.60;;;10.70;99.90;;;;;;5028338;28;20216;-73
2023/10/15 08:47:53;;;;;;;0.60;0.60;;;10.80;99.90;;;;;;5028330;28;20206;-73
2023/10/15 08:50:22;;;;;;;0.60;0.60;;;10.70;99.90;;;;;;5028093;28;20564;-72
2023/10/15 08:52:53;;;;;;;0.60;0.60;;;10.50;99.90;;;;;;5028426;28;20200;-69
2023/10/15 08:55:26;;;;;;;0.50;0.50;;;10.40;99.90;;;;;;5027955;28;20265;-72
2023/10/15 08:57:54;;;;;;;0.60;0.60;;;10.30;99.90;;;;;;5028164;28;20206;-73
2023/10/15 09:00:30;;;;;;;0.60;0.60;;;10.10;99.90;;;;;;5028537;28;20226;-72
2023/10/15 09:02:59;;;;;;;0.70;0.70;;;10.00;99.90;;;;;;5026996;28;20200;-73
2023/10/15 09:05:25;;;;;;;0.73;0.73;;;9.90;99.90;;;;;;5028216;28;20611;-72
2023/10/15 09:07:54;;;;;;;0.65;0.65;;;9.90;99.90;;;;;;5027117;28;20200;-71
2023/10/15 09:10:20;;;;;;;0.60;0.60;;;9.80;99.90;;;;;;5028318;28;20256;-76
2023/10/15 09:12:47;;;;;;;0.70;0.70;;;9.80;99.90;;;;;;5028219;28;20210;-76
2023/10/15 09:15:26;;;;;;;0.60;0.60;;;9.80;99.90;;;;;;5029176;28;20196;-77
2023/10/15 09:17:55;;;;;;;0.90;0.90;;;9.70;99.90;;;;;;5009809;28;20214;-76
2023/10/15 09:20:27;;;;;;;0.60;0.60;;;9.70;99.90;;;;;;5027889;28;20213;-79
2023/10/15 09:22:58;;;;;;;11.48;3.45;;;9.70;99.90;;;;;;5028378;28;20194;-78
2023/10/15 09:25:44;;;;;;;0.70;0.70;;;9.70;99.90;;;;;;5028307;28;20272;-78
2023/10/15 09:28:11;;;;;;;0.60;0.60;;;9.80;99.90;;;;;;5027981;28;20733;-77
2023/10/15 09:30:36;;;;;;;0.60;0.60;;;10.00;99.90;;;;;;5028048;28;20661;-78
2023/10/15 09:33:08;;;;;;;0.60;0.60;;;10.20;99.90;;;;;;5028448;28;20196;-78
2023/10/15 09:35:35;;;;;;;0.52;0.52;;;10.30;99.90;;;;;;5028234;28;20555;-79
2023/10/15 09:38:08;;;;;;;0.63;0.63;;;10.30;99.90;;;;;;5032041;28;20202;-78
2023/10/15 09:40:35;;;;;;;0.60;0.60;;;10.40;99.90;;;;;;5031691;28;20202;-80
2023/10/15 09:43:05;;;;;;;0.88;0.85;;;10.70;99.90;;;;;;5010829;28;20220;-79
2023/10/15 09:45:31;;;;;;;0.60;0.60;;;11.10;99.90;;;;;;5011797;28;20191;-79
2023/10/15 09:47:59;;;;;;;0.60;0.60;;;11.20;99.90;;;;;;5012186;28;20191;-78
2023/10/15 09:50:31;;;;;;;0.80;0.80;;;11.30;99.90;;;;;;5011752;28;20253;-78
2023/10/15 09:53:08;;;;;;;0.60;0.60;;;11.20;99.90;;;;;;5012353;28;20202;-79
2023/10/15 09:55:34;;;;;;;0.60;0.60;;;11.20;99.90;;;;;;5031485;28;21190;-79
2023/10/15 09:58:04;;;;;;;0.60;0.60;;;11.30;99.90;;;;;;5031459;28;20198;-79
2023/10/15 10:03:26;;;;;;;1.17;1.08;;;11.30;99.90;;;;;;5031838;28;20320;-78
2023/10/15 10:06:13;;;;;;;0.60;0.60;;;11.30;99.90;;;;;;5013574;28;20293;-77
2023/10/15 10:09:01;;;;;;;0.60;0.60;;;11.30;99.90;;;;;;5031242;28;20190;-79
2023/10/15 10:11:34;;;;;;;0.50;0.50;;;11.60;99.90;;;;;;5030896;28;20229;-78
2023/10/15 10:14:26;;;;;;;0.80;0.80;;;11.40;99.90;;;;;;5030814;28;20209;-77
2023/10/15 10:16:56;;;;;;;0.60;0.60;;;11.40;99.90;;;;;;5030905;28;20741;-77
2023/10/15 10:19:22;;;;;;;0.60;0.60;;;11.70;99.90;;;;;;5031204;28;20198;-77
2023/10/15 10:21:59;;;;;;;0.60;0.60;;;11.60;99.90;;;;;;5031018;28;20573;-76
2023/10/15 10:24:41;;;;;;;0.60;0.60;;;11.70;99.90;;;;;;5030852;28;20288;-76
2023/10/15 10:27:14;;;;;;;0.60;0.60;;;11.90;99.90;;;;;;5031213;28;20190;-76
2023/10/15 10:29:49;;;;;;;0.57;0.57;;;12.00;99.90;;;;;;5030795;28;20198;-76
2023/10/15 10:32:22;;;;;;;0.60;0.60;;;12.00;99.90;;;;;;5031233;28;20193;-75
2023/10/15 10:35:27;;;;;;;0.50;0.50;;;11.90;99.90;;;;;;5012967;28;20237;-75
2023/10/15 10:38:10;;;;;;;0.60;0.60;;;12.00;99.90;;;;;;5030543;28;20198;-74
2023/10/15 10:41:07;;;;;;;0.60;0.60;;;12.40;99.90;;;;;;5011174;28;20523;-75
2023/10/15 10:43:37;;;;;;;0.50;0.50;;;12.30;99.90;;;;;;5011470;28;20687;-76
2023/10/15 10:46:06;;;;;;;0.60;0.60;;;12.10;99.90;;;;;;5011537;28;20674;-75
2023/10/15 10:48:33;;;;;;;1.02;1.02;;;12.20;99.90;;;;;;5009610;28;20269;-76
2023/10/15 10:51:22;;;;;;;0.60;0.60;;;12.10;99.30;;;;;;5011036;28;20249;-76
2023/10/15 10:54:02;;;;;;;0.60;0.60;;;12.10;99.90;;;;;;5018352;28;20209;-77
2023/10/15 10:56:40;;;;;;;0.52;0.52;;;12.00;99.50;;;;;;4990791;28;20196;-75
2023/10/15 10:59:10;;;;;;;0.50;0.50;;;11.90;99.90;;;;;;4991225;28;20667;-76
2023/10/15 11:01:40;;;;;;;0.60;0.60;;;11.80;99.90;;;;;;4992590;28;20262;-77
2023/10/15 11:04:16;;;;;;;0.60;0.60;;;11.80;99.90;;;;;;4990565;28;20671;-77
2023/10/15 11:06:45;;;;;;;0.50;0.50;;;11.90;99.90;;;;;;4990733;28;20655;-77
2023/10/15 11:09:20;;;;;;;0.57;0.57;;;12.10;99.90;;;;;;4989770;28;20203;-77
2023/10/15 11:11:51;;;;;;;0.50;0.50;;;12.00;99.90;;;;;;4990925;28;20207;-76
2023/10/15 11:14:23;;;;;;;0.55;0.55;;;12.10;99.70;;;;;;4971926;28;20626;-76
2023/10/15 11:16:50;;;;;;;0.60;0.60;;;12.00;99.10;;;;;;4972344;28;20204;-78
2023/10/15 11:19:21;;;;;;;0.60;0.60;;;11.80;99.90;;;;;;4973697;28;20188;-77
2023/10/15 11:21:48;;;;;;;0.60;0.60;;;11.50;99.60;;;;;;4973057;28;20710;-77
2023/10/15 11:24:15;;;;;;;0.60;0.60;;;11.50;99.90;;;;;;4972786;28;20680;-77
2023/10/15 11:26:42;;;;;;;0.60;0.60;;;11.50;99.90;;;;;;4972991;28;20576;-78
2023/10/15 11:29:19;;;;;;;0.60;0.60;;;11.40;99.90;;;;;;4968721;28;20208;-77
2023/10/15 11:31:53;;;;;;;0.60;0.60;;;11.50;99.90;;;;;;4991279;28;20675;-76
2023/10/15 11:34:20;;;;;;;0.60;0.60;;;11.60;99.90;;;;;;4989212;28;20314;-77
2023/10/15 11:36:50;;;;;;;0.60;0.60;;;11.60;99.90;;;;;;4989506;28;20238;-76
2023/10/15 11:39:42;;;;;;;0.50;0.50;;;11.40;99.70;;;;;;4989919;28;20231;-77
2023/10/15 11:42:08;;;;;;;0.60;0.60;;;11.30;99.90;;;;;;4989338;28;20211;-77
2023/10/15 11:44:41;;;;;;;0.57;0.57;;;11.20;99.90;;;;;;4990466;28;20235;-76
2023/10/15 11:47:24;;;;;;;0.60;0.60;;;11.10;99.90;;;;;;4990463;28;20187;-77
2023/10/15 11:49:50;;;;;;;0.50;0.50;;;11.20;99.90;;;;;;4990435;28;20640;-77
2023/10/15 11:52:59;;;;;;;0.60;0.60;;;11.30;99.90;;;;;;4990742;28;20191;-76
2023/10/15 11:55:09;;;;;;;0.50;0.50;;;11.40;99.90;;;;;;5009267;28;20279;-77
2023/10/15 11:57:39;;;;;;;0.55;0.55;;;11.60;99.90;;;;;;5030892;28;20198;-77
2023/10/15 12:00:09;;;;;;;0.60;0.60;;;11.80;99.90;;;;;;5011568;28;20245;-77
2023/10/15 12:02:40;;;;;;;0.52;0.52;;;11.80;99.90;;;;;;5030842;28;20198;-78
2023/10/15 12:05:09;;;;;;;0.57;0.57;;;11.80;99.90;;;;;;5013651;28;20197;-76
2023/10/15 12:07:37;;;;;;;0.57;0.57;;;11.80;99.90;;;;;;5029746;28;20655;-76
2023/10/15 12:10:14;;;;;;;0.50;0.50;;;11.80;99.90;;;;;;5012155;28;20216;-76
2023/10/15 12:12:42;;;;;;;0.57;0.57;;;11.80;99.90;;;;;;5011154;28;20256;-76
2023/10/15 12:15:12;;;;;;;0.60;0.60;;;11.80;99.90;;;;;;5029282;28;20198;-76
2023/10/15 12:17:38;;;;;;;0.60;0.60;;;11.70;99.90;;;;;;5029148;28;20195;-76
2023/10/15 12:20:06;;;;;;;0.60;0.60;;;11.60;99.90;;;;;;5029131;28;20634;-76
2023/10/15 12:22:35;;;;;;;0.50;0.50;;;11.70;99.90;;;;;;5029195;28;20728;-76
2023/10/15 12:25:03;;;;;;;0.60;0.60;;;11.50;99.90;;;;;;5029365;28;20753;-76
2023/10/15 12:27:32;;;;;;;0.50;0.50;;;11.20;99.90;;;;;;5011491;28;20198;-76
2023/10/15 12:30:04;;;;;;;0.60;0.60;;;11.00;99.90;;;;;;5029150;28;20586;-76
2023/10/15 12:32:29;;;;;;;0.60;0.60;;;10.80;99.90;;;;;;5028696;28;20240;-76
2023/10/15 12:34:55;;;;;;;0.60;0.60;;;10.80;99.90;;;;;;5029027;28;20709;-75
2023/10/15 12:37:24;;;;;;;0.50;0.50;;;10.70;99.90;;;;;;5028845;28;20685;-75
2023/10/15 12:39:51;;;;;;;0.57;0.57;;;10.70;99.90;;;;;;5029611;28;20530;-75
2023/10/15 12:42:21;;;;;;;0.50;0.50;;;10.70;99.50;;;;;;5029769;28;20194;-74
2023/10/15 12:44:47;;;;;;;0.60;0.60;;;10.60;99.90;;;;;;5029592;28;20221;-77
2023/10/15 12:47:13;;;;;;;0.70;0.70;;;10.50;99.90;;;;;;5012015;28;20627;-75
2023/10/15 12:49:42;;;;;;;0.60;0.60;;;10.50;99.90;;;;;;5029671;28;20688;-77
2023/10/15 12:52:11;;;;;;;0.60;0.60;;;10.40;99.90;;;;;;5028858;28;20194;-77
2023/10/15 12:54:36;;;;;;;0.60;0.60;;;10.30;99.90;;;;;;5028199;28;20233;-78
2023/10/15 12:57:05;;;;;;;0.70;0.70;;;10.20;99.90;;;;;;5010986;28;20198;-78
2023/10/15 12:59:31;;;;;;;0.60;0.60;;;10.10;99.90;;;;;;5011204;28;20249;-78
2023/10/15 13:01:59;;;;;;;0.60;0.60;;;10.00;99.90;;;;;;5028699;28;20213;-78
2023/10/15 13:04:25;;;;;;;0.60;0.60;;;9.90;99.90;;;;;;5010715;28;20685;-77
2023/10/15 13:06:51;;;;;;;0.60;0.60;;;9.90;99.90;;;;;;5028853;28;20195;-78
2023/10/15 13:09:19;;;;;;;0.60;0.60;;;10.30;99.90;;;;;;5029003;28;20194;-78
2023/10/15 13:11:55;;;;;;;0.60;0.60;;;10.40;99.90;;;;;;5030477;28;20660;-77
2023/10/15 13:14:24;;;;;;;0.60;0.60;;;10.40;99.90;;;;;;5032509;28;20202;-78
2023/10/15 13:16:50;;;;;;;0.70;0.70;;;10.40;99.90;;;;;;5014912;28;20230;-78
2023/10/15 13:19:16;;;;;;;0.60;0.60;;;10.50;99.90;;;;;;5032791;28;20197;-78
2023/10/15 13:21:42;;;;;;;0.55;0.55;;;10.40;99.90;;;;;;5014730;28;20337;-77
2023/10/15 13:24:08;;;;;;;0.60;0.60;;;10.30;99.90;;;;;;5032788;28;20290;-78